Flight Track Log - Related Links

Times and Time Zones

All times are in EDT time to prevent confusion due to time zone crossing. See the FIN52 flight status page for this flight to view local times or setup timezone preferences in your user account.

Time Position Orientation Groundspeed Altitude Reporting Facility
EDT Latitude Longitude Course Direction KTS MPH feet Rate Location/Type
Tue 11:11:00 PM 40.5458 116.1335 324° Northwest  Level Estimated
Tue 11:12:00 PM 40.6387 116.0425 323° Northwest  Level Estimated
Tue 11:13:00 PM 40.7315 115.9513 323° Northwest  Level Estimated
Tue 11:14:00 PM 40.8243 115.8599 323° Northwest  Level Estimated
Tue 11:15:00 PM 40.9170 115.7681 323° Northwest  Level Estimated
Tue 11:16:00 PM 41.0096 115.6762 323° Northwest  Level Estimated
Tue 11:17:00 PM 41.1022 115.5839 323° Northwest  Level Estimated
Tue 11:18:00 PM 41.1947 115.4914 323° Northwest  Level Estimated
Tue 11:19:00 PM 41.2871 115.3987 323° Northwest  Level Estimated
Tue 11:20:00 PM 41.3794 115.3056 323° Northwest  Level Estimated
Tue 11:21:00 PM 41.4717 115.2123 323° Northwest  Level Estimated
Tue 11:22:00 PM 41.5639 115.1188 323° Northwest  Level Estimated
Tue 11:23:00 PM 41.6560 115.0250 323° Northwest  Level Estimated
Tue 11:24:00 PM 41.7480 114.9309 323° Northwest  Level Estimated
Tue 11:25:00 PM 41.8400 114.8365 323° Northwest  Level Estimated
Tue 11:26:00 PM 41.9318 114.7419 323° Northwest  Level Estimated
Tue 11:27:00 PM 42.0236 114.6470 322° Northwest  Level Estimated
Tue 11:28:00 PM 42.1154 114.5518 322° Northwest  Level Estimated
Tue 11:29:00 PM 42.2070 114.4563 322° Northwest  Level Estimated
Tue 11:30:00 PM 42.2986 114.3606 322° Northwest  Level Estimated
Tue 11:31:00 PM 42.3900 114.2646 322° Northwest  Level Estimated
Tue 11:32:00 PM 42.4814 114.1683 322° Northwest  Level Estimated
Tue 11:33:00 PM 42.5728 114.0717 322° Northwest  Level Estimated
Tue 11:34:00 PM 42.6640 113.9749 322° Northwest  Level Estimated
Tue 11:35:00 PM 42.7552 113.8777 322° Northwest  Level Estimated
Tue 11:36:00 PM 42.8462 113.7803 322° Northwest  Level Estimated
Tue 11:37:00 PM 42.9372 113.6826 322° Northwest  Level Estimated
Tue 11:38:00 PM 43.0281 113.5846 322° Northwest  Level Estimated
Tue 11:39:00 PM 43.1190 113.4863 322° Northwest  Level Estimated
Tue 11:40:00 PM 43.2097 113.3877 322° Northwest  Level Estimated
Tue 11:41:00 PM 43.3004 113.2888 322° Northwest  Level Estimated
Tue 11:42:00 PM 43.3909 113.1896 322° Northwest  Level Estimated
Tue 11:43:00 PM 43.4814 113.0901 321° Northwest  Level Estimated
Tue 11:44:00 PM 43.5718 112.9904 321° Northwest  Level Estimated
Tue 11:45:00 PM 43.6621 112.8903 321° Northwest  Level Estimated
Tue 11:46:00 PM 43.7523 112.7899 321° Northwest  Level Estimated
Tue 11:47:00 PM 43.8425 112.6893 321° Northwest  Level Estimated
Tue 11:48:00 PM 43.9325 112.5883 321° Northwest  Level Estimated
Tue 11:49:00 PM 44.0225 112.4870 321° Northwest  Level Estimated
Tue 11:50:00 PM 44.1124 112.3854 321° Northwest  Level Estimated
Tue 11:51:00 PM 44.2021 112.2835 321° Northwest  Level Estimated
Tue 11:52:00 PM 44.2918 112.1813 321° Northwest  Level Estimated
Tue 11:53:00 PM 44.3814 112.0788 321° Northwest  Level Estimated
Tue 11:54:00 PM 44.4709 111.9759 321° Northwest  Level Estimated
Tue 11:55:00 PM 44.5603 111.8728 321° Northwest  Level Estimated
Tue 11:56:00 PM 44.6497 111.7693 321° Northwest  Level Estimated
Tue 11:57:00 PM 44.7389 111.6655 320° Northwest  Level Estimated
Tue 11:58:00 PM 44.8280 111.5614 320° Northwest  Level Estimated
Tue 11:59:00 PM 44.9170 111.4569 320° Northwest  Level Estimated
Wed 12:00:00 AM 45.0060 111.3522 320° Northwest  Level Estimated
Wed 12:01:00 AM 45.0948 111.2471 320° Northwest  Level Estimated
Wed 12:02:00 AM 45.1836 111.1417 320° Northwest  Level Estimated
Wed 12:03:00 AM 45.2722 111.0359 320° Northwest  Level Estimated
Wed 12:04:00 AM 45.3608 110.9299 320° Northwest  Level Estimated
Wed 12:05:00 AM 45.4492 110.8235 320° Northwest  Level Estimated
Wed 12:06:00 AM 45.5376 110.7167 320° Northwest  Level Estimated
Wed 12:07:00 AM 45.6258 110.6096 320° Northwest  Level Estimated
Wed 12:08:00 AM 45.7140 110.5022 320° Northwest  Level Estimated
Wed 12:09:00 AM 45.8020 110.3945 320° Northwest  Level Estimated
Wed 12:10:00 AM 45.8900 110.2864 319° Northwest  Level Estimated
Wed 12:11:00 AM 45.9778 110.1780 319° Northwest  Level Estimated
Wed 12:12:00 AM 46.0656 110.0692 319° Northwest  Level Estimated
Wed 12:13:00 AM 46.1532 109.9601 319° Northwest  Level Estimated
Wed 12:14:00 AM 46.2408 109.8506 319° Northwest  Level Estimated
Wed 12:15:00 AM 46.3282 109.7408 319° Northwest  Level Estimated
Wed 12:16:00 AM 46.4155 109.6306 319° Northwest  Level Estimated
Wed 12:17:00 AM 46.5028 109.5201 319° Northwest  Level Estimated
Wed 12:18:00 AM 46.5899 109.4092 319° Northwest  Level Estimated
Wed 12:19:00 AM 46.6769 109.2979 319° Northwest  Level Estimated
Wed 12:20:00 AM 46.7638 109.1863 319° Northwest  Level Estimated
Wed 12:21:00 AM 46.8506 109.0744 319° Northwest  Level Estimated
Wed 12:22:00 AM 46.9372 108.9621 319° Northwest  Level Estimated
Wed 12:23:00 AM 47.0238 108.8494 318° Northwest  Level Estimated
Wed 12:24:00 AM 47.1103 108.7363 318° Northwest  Level Estimated
Wed 12:25:00 AM 47.1966 108.6229 318° Northwest  Level Estimated
Wed 12:26:00 AM 47.2829 108.5091 318° Northwest  Level Estimated
Wed 12:27:00 AM 47.3690 108.3950 318° Northwest  Level Estimated
Wed 12:28:00 AM 47.4550 108.2804 318° Northwest  Level Estimated
Wed 12:29:00 AM 47.5409 108.1655 318° Northwest  Level Estimated
Wed 12:30:00 AM 47.6267 108.0502 318° Northwest  Level Estimated
Wed 12:31:00 AM 47.7123 107.9346 318° Northwest  Level Estimated
Wed 12:32:00 AM 47.7979 107.8185 318° Northwest  Level Estimated
Wed 12:33:00 AM 47.8833 107.7021 318° Northwest  Level Estimated
Wed 12:34:00 AM 47.9686 107.5853 318° Northwest  Level Estimated
Wed 12:35:00 AM 48.0538 107.4681 317° Northwest  Level Estimated
Wed 12:36:00 AM 48.1389 107.3505 317° Northwest  Level Estimated
Wed 12:37:00 AM 48.2239 107.2325 317° Northwest  Level Estimated
Wed 12:38:00 AM 48.3087 107.1142 317° Northwest  Level Estimated
Wed 12:39:00 AM 48.3934 106.9954 317° Northwest  Level Estimated
Wed 12:40:00 AM 48.4780 106.8763 317° Northwest  Level Estimated
Wed 12:41:00 AM 48.5624 106.7567 317° Northwest  Level Estimated
Wed 12:42:00 AM 48.6468 106.6367 317° Northwest  Level Estimated
Wed 12:43:00 AM 48.7310 106.5164 317° Northwest  Level Estimated
Wed 12:44:00 AM 48.8151 106.3956 317° Northwest  Level Estimated
Wed 12:45:00 AM 48.8991 106.2745 317° Northwest  Level Estimated
Wed 12:46:00 AM 48.9829 106.1529 316° Northwest  Level Estimated
Wed 12:47:00 AM 49.0666 106.0309 316° Northwest  Level Estimated
Wed 12:48:00 AM 49.1502 105.9085 316° Northwest  Level Estimated
Wed 12:49:00 AM 49.2336 105.7857 316° Northwest  Level Estimated
Wed 12:50:00 AM 49.3169 105.6625 316° Northwest  Level Estimated
Wed 12:51:00 AM 49.4001 105.5388 316° Northwest  Level Estimated
Wed 12:52:00 AM 49.4832 105.4148 316° Northwest  Level Estimated
Wed 12:53:00 AM 49.5661 105.2903 316° Northwest  Level Estimated
Wed 12:54:00 AM 49.6489 105.1654 316° Northwest  Level Estimated
Wed 12:55:00 AM 49.7315 105.0401 316° Northwest  Level Estimated
Wed 12:56:00 AM 49.8141 104.9143 316° Northwest  Level Estimated
Wed 12:57:00 AM 49.8964 104.7881 315° West  Level Estimated
Wed 12:58:00 AM 49.9787 104.6615 315° West  Level Estimated
Wed 12:59:00 AM 50.0608 104.5345 315° West  Level Estimated
Wed 01:00:00 AM 50.1427 104.4070 315° West  Level Estimated
Wed 01:01:00 AM 50.2246 104.2791 315° West  Level Estimated
Wed 01:02:00 AM 50.3063 104.1507 315° West  Level Estimated
Wed 01:03:00 AM 50.3878 104.0219 315° West  Level Estimated
Wed 01:04:00 AM 50.4692 103.8927 315° West  Level Estimated
Wed 01:05:00 AM 50.5505 103.7630 315° West  Level Estimated
Wed 01:06:00 AM 50.6316 103.6329 315° West  Level Estimated
Wed 01:07:00 AM 50.7125 103.5023 314° West  Level Estimated
Wed 01:08:00 AM 50.7934 103.3712 314° West  Level Estimated
Wed 01:09:00 AM 50.8740 103.2397 314° West  Level Estimated
Wed 01:10:00 AM 50.9546 103.1078 314° West  Level Estimated
Wed 01:11:00 AM 51.0349 102.9754 314° West  Level Estimated
Wed 01:12:00 AM 51.1152 102.8425 314° West  Level Estimated
Wed 01:13:00 AM 51.1952 102.7092 314° West  Level Estimated
Wed 01:14:00 AM 51.2752 102.5754 314° West  Level Estimated
Wed 01:15:00 AM 51.3549 102.4411 314° West  Level Estimated
Wed 01:16:00 AM 51.4345 102.3064 313° West  Level Estimated
Wed 01:17:00 AM 51.5140 102.1712 313° West  Level Estimated
Wed 01:18:00 AM 51.5933 102.0356 313° West  Level Estimated
Wed 01:19:00 AM 51.6725 101.8994 313° West  Level Estimated
Wed 01:20:00 AM 51.7514 101.7628 313° West  Level Estimated
Wed 01:21:00 AM 51.8303 101.6257 313° West  Level Estimated
Wed 01:22:00 AM 51.9089 101.4881 313° West  Level Estimated
Wed 01:23:00 AM 51.9874 101.3501 313° West  Level Estimated
Wed 01:24:00 AM 52.0658 101.2115 313° West  Level Estimated
Wed 01:25:00 AM 52.1440 101.0725 313° West  Level Estimated
Wed 01:26:00 AM 52.2220 100.9330 312° West  Level Estimated
Wed 01:27:00 AM 52.2999 100.7930 312° West  Level Estimated
Wed 01:28:00 AM 52.3775 100.6525 312° West  Level Estimated
Wed 01:29:00 AM 52.4551 100.5115 312° West  Level Estimated
Wed 01:30:00 AM 52.5324 100.3700 312° West  Level Estimated
Wed 01:31:00 AM 52.6096 100.2280 312° West  Level Estimated
Wed 01:32:00 AM 52.6866 100.0855 312° West  Level Estimated
Wed 01:33:00 AM 52.7635 99.9425 312° West  Level Estimated
Wed 01:34:00 AM 52.8401 99.7990 312° West  Level Estimated
Wed 01:35:00 AM 52.9166 99.6550 311° West  Level Estimated
Wed 01:36:00 AM 52.9930 99.5105 311° West  Level Estimated
Wed 01:37:00 AM 53.0691 99.3655 311° West  Level Estimated
Wed 01:38:00 AM 53.1451 99.2199 311° West  Level Estimated
Wed 01:39:00 AM 53.2209 99.0739 311° West  Level Estimated
Wed 01:40:00 AM 53.2965 98.9273 311° West  Level Estimated
Wed 01:41:00 AM 53.3719 98.7802 311° West  Level Estimated
Wed 01:42:00 AM 53.4472 98.6326 311° West  Level Estimated
Wed 01:43:00 AM 53.5222 98.4845 310° West  Level Estimated
Wed 01:44:00 AM 53.5971 98.3358 310° West  Level Estimated
Wed 01:45:00 AM 53.6718 98.1866 310° West  Level Estimated
Wed 01:46:00 AM 53.7463 98.0369 310° West  Level Estimated
Wed 01:47:00 AM 53.8206 97.8867 310° West  Level Estimated
Wed 01:48:00 AM 53.8948 97.7359 310° West  Level Estimated
Wed 01:49:00 AM 53.9687 97.5845 310° West  Level Estimated
Wed 01:50:00 AM 54.0425 97.4327 310° West  Level Estimated
Wed 01:51:00 AM 54.1161 97.2803 310° West  Level Estimated
Wed 01:52:00 AM 54.1894 97.1274 309° West  Level Estimated
Wed 01:53:00 AM 54.2626 96.9739 309° West  Level Estimated
Wed 01:54:00 AM 54.3356 96.8199 309° West  Level Estimated
Wed 01:55:00 AM 54.4084 96.6653 309° West  Level Estimated
Wed 01:56:00 AM 54.4809 96.5102 309° West  Level Estimated
Wed 01:57:00 AM 54.5533 96.3545 309° West  Level Estimated
Wed 01:58:00 AM 54.6255 96.1983 309° West  Level Estimated
Wed 01:59:00 AM 54.6975 96.0415 309° West  Level Estimated
Wed 02:00:00 AM 54.7693 95.8842 308° West  Level Estimated
Wed 02:01:00 AM 54.8409 95.7263 308° West  Level Estimated
Wed 02:02:00 AM 54.9122 95.5678 308° West  Level Estimated
Wed 02:03:00 AM 54.9834 95.4088 308° West  Level Estimated
Wed 02:04:00 AM 55.0544 95.2492 308° West  Level Estimated
Wed 02:05:00 AM 55.1251 95.0891 308° West  Level Estimated
Wed 02:06:00 AM 55.1956 94.9284 308° West  Level Estimated
Wed 02:07:00 AM 55.2660 94.7671 307° West  Level Estimated
Wed 02:08:00 AM 55.3361 94.6052 307° West  Level Estimated
Wed 02:09:00 AM 55.4060 94.4428 307° West  Level Estimated
Wed 02:10:00 AM 55.4757 94.2798 307° West  Level Estimated
Wed 02:11:00 AM 55.5451 94.1162 307° West  Level Estimated
Wed 02:12:00 AM 55.6144 93.9521 307° West  Level Estimated
Wed 02:13:00 AM 55.6834 93.7874 307° West  Level Estimated
Wed 02:14:00 AM 55.7522 93.6220 307° West  Level Estimated
Wed 02:15:00 AM 55.8208 93.4561 306° West  Level Estimated
Wed 02:16:00 AM 55.8891 93.2897 306° West  Level Estimated
Wed 02:17:00 AM 55.9573 93.1226 306° West  Level Estimated
Wed 02:18:00 AM 56.0252 92.9549 306° West  Level Estimated
Wed 02:19:00 AM 56.0929 92.7867 306° West  Level Estimated
Wed 02:20:00 AM 56.1603 92.6178 306° West  Level Estimated
Wed 02:21:00 AM 56.2275 92.4484 306° West  Level Estimated
Wed 02:22:00 AM 56.2945 92.2784 305° West  Level Estimated
Wed 02:23:00 AM 56.3613 92.1077 305° West  Level Estimated
Wed 02:24:00 AM 56.4278 91.9365 305° West  Level Estimated
Wed 02:25:00 AM 56.4940 91.7647 305° West  Level Estimated
Wed 02:26:00 AM 56.5601 91.5923 305° West  Level Estimated
Wed 02:27:00 AM 56.6259 91.4193 305° West  Level Estimated
Wed 02:28:00 AM 56.6915 91.2456 305° West  Level Estimated
Wed 02:29:00 AM 56.7568 91.0714 304° West  Level Estimated
Wed 02:30:00 AM 56.8218 90.8966 304° West  Level Estimated
Wed 02:31:00 AM 56.8867 90.7211 304° West  Level Estimated
Wed 02:32:00 AM 56.9513 90.5451 304° West  Level Estimated
Wed 02:33:00 AM 57.0156 90.3684 304° West  Level Estimated
Wed 02:34:00 AM 57.0797 90.1911 304° West  Level Estimated
Wed 02:35:00 AM 57.1435 90.0133 304° West  Level Estimated
Wed 02:36:00 AM 57.2071 89.8348 303° West  Level Estimated
Wed 02:37:00 AM 57.2704 89.6556 303° West  Level Estimated
Wed 02:38:00 AM 57.3335 89.4759 303° West  Level Estimated
Wed 02:39:00 AM 57.3963 89.2956 303° West  Level Estimated
Wed 02:40:00 AM 57.4589 89.1146 303° West  Level Estimated
Wed 02:41:00 AM 57.5212 88.9330 303° West  Level Estimated
Wed 02:42:00 AM 57.5832 88.7508 302° West  Level Estimated
Wed 02:43:00 AM 57.6450 88.5680 302° West  Level Estimated
Wed 02:44:00 AM 57.7065 88.3846 302° West  Level Estimated
Wed 02:45:00 AM 57.7677 88.2005 302° West  Level Estimated
Wed 02:46:00 AM 57.8287 88.0158 302° West  Level Estimated
Wed 02:47:00 AM 57.8894 87.8305 302° West  Level Estimated
Wed 02:48:00 AM 57.9498 87.6445 302° West  Level Estimated
Wed 02:49:00 AM 58.0100 87.4579 301° West  Level Estimated
Wed 02:50:00 AM 58.0699 87.2708 301° West  Level Estimated
Wed 02:51:00 AM 58.1295 87.0829 301° West  Level Estimated
Wed 02:52:00 AM 58.1888 86.8945 301° West  Level Estimated
Wed 02:53:00 AM 58.2479 86.7054 301° West  Level Estimated
Wed 02:54:00 AM 58.3066 86.5157 301° West  Level Estimated
Wed 02:55:00 AM 58.3651 86.3253 300° West  Level Estimated
Wed 02:56:00 AM 58.4234 86.1344 300° West  Level Estimated
Wed 02:57:00 AM 58.4813 85.9428 300° West  Level Estimated
Wed 02:58:00 AM 58.5389 85.7505 300° West  Level Estimated
Wed 02:59:00 AM 58.5963 85.5577 300° West  Level Estimated
Wed 03:00:00 AM 58.6533 85.3642 300° West  Level Estimated
Wed 03:01:00 AM 58.7101 85.1701 299° West  Level Estimated
Wed 03:02:00 AM 58.7666 84.9753 299° West  Level Estimated
Wed 03:03:00 AM 58.8228 84.7799 299° West  Level Estimated
Wed 03:04:00 AM 58.8786 84.5839 299° West  Level Estimated
Wed 03:05:00 AM 58.9342 84.3872 299° West  Level Estimated
Wed 03:06:00 AM 58.9895 84.1899 299° West  Level Estimated
Wed 03:07:00 AM 59.0445 83.9920 298° West  Level Estimated
Wed 03:08:00 AM 59.0992 83.7934 298° West  Level Estimated
Wed 03:09:00 AM 59.1536 83.5943 298° West  Level Estimated
Wed 03:10:00 AM 59.2076 83.3944 298° West  Level Estimated
Wed 03:11:00 AM 59.2614 83.1940 298° West  Level Estimated
Wed 03:12:00 AM 59.3149 82.9929 298° West  Level Estimated
Wed 03:13:00 AM 59.3680 82.7912 297° West  Level Estimated
Wed 03:14:00 AM 59.4209 82.5888 297° West  Level Estimated
Wed 03:15:00 AM 59.4734 82.3858 297° West  Level Estimated
Wed 03:16:00 AM 59.5256 82.1822 297° West  Level Estimated
Wed 03:17:00 AM 59.5775 81.9780 297° West  Level Estimated
Wed 03:18:00 AM 59.6291 81.7731 297° West  Level Estimated
Wed 03:19:00 AM 59.6803 81.5676 296° West  Level Estimated
Wed 03:20:00 AM 59.7312 81.3615 296° West  Level Estimated
Wed 03:21:00 AM 59.7818 81.1548 296° West  Level Estimated
Wed 03:22:00 AM 59.8321 80.9474 296° West  Level Estimated
Wed 03:23:00 AM 59.8821 80.7394 296° West  Level Estimated
Wed 03:24:00 AM 59.9317 80.5308 295° West  Level Estimated
Wed 03:25:00 AM 59.9810 80.3215 295° West  Level Estimated
Wed 03:26:00 AM 60.0299 80.1116 295° West  Level Estimated
Wed 03:27:00 AM 60.0786 79.9012 295° West  Level Estimated
Wed 03:28:00 AM 60.1269 79.6900 295° West  Level Estimated
Wed 03:29:00 AM 60.1748 79.4783 295° West  Level Estimated
Wed 03:30:00 AM 60.2224 79.2660 294° West  Level Estimated
Wed 03:31:00 AM 60.2697 79.0530 294° West  Level Estimated
Wed 03:32:00 AM 60.3166 78.8394 294° West  Level Estimated
Wed 03:33:00 AM 60.3632 78.6252 294° West  Level Estimated
Wed 03:34:00 AM 60.4095 78.4104 294° West  Level Estimated
Wed 03:35:00 AM 60.4554 78.1950 293° West  Level Estimated
Wed 03:36:00 AM 60.5009 77.9790 293° West  Level Estimated
Wed 03:37:00 AM 60.5461 77.7624 293° West  Level Estimated
Wed 03:38:00 AM 60.5910 77.5452 293° West  Level Estimated
Wed 03:39:00 AM 60.6355 77.3273 293° West  Level Estimated
Wed 03:40:00 AM 60.6796 77.1089 293° West  Level Estimated
Wed 03:41:00 AM 60.7234 76.8899 292° West  Level Estimated
Wed 03:42:00 AM 60.7668 76.6703 292° West  Level Estimated
Wed 03:43:00 AM 60.8099 76.4501 292° West  Level Estimated
Wed 03:44:00 AM 60.8526 76.2293 292° West  Level Estimated
Wed 03:45:00 AM 60.8949 76.0079 292° West  Level Estimated
Wed 03:46:00 AM 60.9369 75.7859 291° West  Level Estimated
Wed 03:47:00 AM 60.9785 75.5633 291° West  Level Estimated
Wed 03:48:00 AM 61.0198 75.3402 291° West  Level Estimated
Wed 03:49:00 AM 61.0606 75.1165 291° West  Level Estimated
Wed 03:50:00 AM 61.1011 74.8922 291° West  Level Estimated
Wed 03:51:00 AM 61.1413 74.6673 290° West  Level Estimated
Wed 03:52:00 AM 61.1810 74.4419 290° West  Level Estimated
Wed 03:53:00 AM 61.2204 74.2159 290° West  Level Estimated
Wed 03:54:00 AM 61.2594 73.9893 290° West  Level Estimated
Wed 03:55:00 AM 61.2980 73.7622 290° West  Level Estimated
Wed 03:56:00 AM 61.3363 73.5345 289° West  Level Estimated
Wed 03:57:00 AM 61.3741 73.3062 289° West  Level Estimated
Wed 03:58:00 AM 61.4116 73.0774 289° West  Level Estimated
Wed 03:59:00 AM 61.4487 72.8481 289° West  Level Estimated
Wed 04:00:00 AM 61.4854 72.6182 289° West  Level Estimated
Wed 04:01:00 AM 61.5218 72.3878 288° West  Level Estimated
Wed 04:02:00 AM 61.5577 72.1569 288° West  Level Estimated
Wed 04:03:00 AM 61.5932 71.9254 288° West  Level Estimated
Wed 04:04:00 AM 61.6284 71.6933 288° West  Level Estimated
Wed 04:05:00 AM 61.6631 71.4608 288° West  Level Estimated
Wed 04:06:00 AM 61.6975 71.2277 287° West  Level Estimated
Wed 04:07:00 AM 61.7314 70.9941 287° West  Level Estimated
Wed 04:08:00 AM 61.7650 70.7601 287° West  Level Estimated
Wed 04:09:00 AM 61.7982 70.5255 287° West  Level Estimated
Wed 04:10:00 AM 61.8310 70.2904 287° West  Level Estimated
Wed 04:11:00 AM 61.8633 70.0547 286° West  Level Estimated
Wed 04:12:00 AM 61.8953 69.8186 286° West  Level Estimated
Wed 04:13:00 AM 61.9268 69.5820 286° West  Level Estimated
Wed 04:14:00 AM 61.9580 69.3450 286° West  Level Estimated
Wed 04:15:00 AM 61.9887 69.1074 286° West  Level Estimated
Wed 04:16:00 AM 62.0190 68.8694 285° West  Level Estimated
Wed 04:17:00 AM 62.0490 68.6309 285° West  Level Estimated
Wed 04:18:00 AM 62.0785 68.3919 285° West  Level Estimated
Wed 04:19:00 AM 62.1076 68.1525 285° West  Level Estimated
Wed 04:20:00 AM 62.1362 67.9126 284° West  Level Estimated
Wed 04:21:00 AM 62.1645 67.6722 284° West  Level Estimated
Wed 04:22:00 AM 62.1923 67.4314 284° West  Level Estimated
Wed 04:23:00 AM 62.2198 67.1902 284° West  Level Estimated
Wed 04:24:00 AM 62.2468 66.9485 284° West  Level Estimated
Wed 04:25:00 AM 62.2734 66.7065 283° West  Level Estimated
Wed 04:26:00 AM 62.2995 66.4639 283° West  Level Estimated
Wed 04:27:00 AM 62.3253 66.2210 283° West  Level Estimated
Wed 04:28:00 AM 62.3506 65.9777 283° West  Level Estimated
Wed 04:29:00 AM 62.3755 65.7339 283° West  Level Estimated
Wed 04:30:00 AM 62.4000 65.4897 282° West  Level Estimated
Wed 04:31:00 AM 62.4240 65.2452 282° West  Level Estimated
Wed 04:32:00 AM 62.4476 65.0002 282° West  Level Estimated
Wed 04:33:00 AM 62.4708 64.7549 282° West  Level Estimated
Wed 04:34:00 AM 62.4935 64.5092 281° West  Level Estimated
Wed 04:35:00 AM 62.5159 64.2631 281° West  Level Estimated
Wed 04:36:00 AM 62.5377 64.0167 281° West  Level Estimated
Wed 04:37:00 AM 62.5592 63.7699 281° West  Level Estimated
Wed 04:38:00 AM 62.5802 63.5227 281° West  Level Estimated
Wed 04:39:00 AM 62.6008 63.2752 280° West  Level Estimated
Wed 04:40:00 AM 62.6209 63.0274 280° West  Level Estimated
Wed 04:41:00 AM 62.6406 62.7792 280° West  Level Estimated
Wed 04:42:00 AM 62.6599 62.5307 280° West  Level Estimated
Wed 04:43:00 AM 62.6787 62.2819 279° West  Level Estimated
Wed 04:44:00 AM 62.6971 62.0327 279° West  Level Estimated
Wed 04:45:00 AM 62.7150 61.7833 279° West  Level Estimated
Wed 04:46:00 AM 62.7325 61.5336 279° West  Level Estimated
Wed 04:47:00 AM 62.7496 61.2835 279° West  Level Estimated
Wed 04:48:00 AM 62.7662 61.0332 278° West  Level Estimated
Wed 04:49:00 AM 62.7823 60.7826 278° West  Level Estimated
Wed 04:50:00 AM 62.7980 60.5318 278° West  Level Estimated
Wed 04:51:00 AM 62.8133 60.2806 278° West  Level Estimated
Wed 04:52:00 AM 62.8281 60.0293 277° West  Level Estimated
Wed 04:53:00 AM 62.8425 59.7776 277° West  Level Estimated
Wed 04:54:00 AM 62.8564 59.5257 277° West  Level Estimated
Wed 04:55:00 AM 62.8699 59.2736 277° West  Level Estimated
Wed 04:56:00 AM 62.8829 59.0213 277° West  Level Estimated
Wed 04:57:00 AM 62.8955 58.7687 276° West  Level Estimated
Wed 04:58:00 AM 62.9076 58.5159 276° West  Level Estimated
Wed 04:59:00 AM 62.9193 58.2630 276° West  Level Estimated
Wed 05:00:00 AM 62.9305 58.0098 276° West  Level Estimated
Wed 05:01:00 AM 62.9412 57.7564 275° West  Level Estimated
Wed 05:02:00 AM 62.9515 57.5029 275° West  Level Estimated
Wed 05:03:00 AM 62.9614 57.2491 275° West  Level Estimated
Wed 05:04:00 AM 62.9708 56.9953 275° West  Level Estimated
Wed 05:05:00 AM 62.9797 56.7412 275° West  Level Estimated
Wed 05:06:00 AM 62.9882 56.4870 274° West  Level Estimated
Wed 05:07:00 AM 62.9962 56.2327 274° West  Level Estimated
Wed 05:08:00 AM 63.0038 55.9782 274° West  Level Estimated
Wed 05:09:00 AM 63.0109 55.7236 274° West  Level Estimated
Wed 05:10:00 AM 63.0176 55.4688 273° West  Level Estimated
Wed 05:11:00 AM 63.0238 55.2140 273° West  Level Estimated
Wed 05:12:00 AM 63.0295 54.9591 273° West  Level Estimated
Wed 05:13:00 AM 63.0348 54.7040 273° West  Level Estimated
Wed 05:14:00 AM 63.0396 54.4489 272° West  Level Estimated
Wed 05:15:00 AM 63.0440 54.1937 272° West  Level Estimated
Wed 05:16:00 AM 63.0479 53.9384 272° West  Level Estimated
Wed 05:17:00 AM 63.0513 53.6830 272° West  Level Estimated
Wed 05:18:00 AM 63.0543 53.4276 272° West  Level Estimated
Wed 05:19:00 AM 63.0568 53.1722 271° West  Level Estimated
Wed 05:20:00 AM 63.0589 52.9167 271° West  Level Estimated
Wed 05:21:00 AM 63.0605 52.6612 271° West  Level Estimated
Wed 05:22:00 AM 63.0616 52.4056 271° West  Level Estimated
Wed 05:23:00 AM 63.0623 52.1501 270° West  Level Estimated
Wed 05:24:00 AM 63.0625 51.8945 270° West  Level Estimated
Wed 05:25:00 AM 63.0623 51.6389 270° West  Level Estimated
Wed 05:26:00 AM 63.0616 51.3834 270° West  Level Estimated
Wed 05:27:00 AM 63.0604 51.1278 270° West  Level Estimated
Wed 05:28:00 AM 63.0588 50.8723 269° West  Level Estimated
Wed 05:29:00 AM 63.0567 50.6168 269° West  Level Estimated
Wed 05:30:00 AM 63.0542 50.3613 269° West  Level Estimated
Wed 05:31:00 AM 63.0512 50.1059 269° West  Level Estimated
Wed 05:32:00 AM 63.0477 49.8506 268° West  Level Estimated
Wed 05:33:00 AM 63.0438 49.5953 268° West  Level Estimated
Wed 05:34:00 AM 63.0394 49.3401 268° West  Level Estimated
Wed 05:35:00 AM 63.0346 49.0850 268° West  Level Estimated
Wed 05:36:00 AM 63.0293 48.8299 267° West  Level Estimated
Wed 05:37:00 AM 63.0235 48.5750 267° West  Level Estimated
Wed 05:38:00 AM 63.0173 48.3202 267° West  Level Estimated
Wed 05:39:00 AM 63.0106 48.0654 267° West  Level Estimated
Wed 05:40:00 AM 63.0035 47.8108 267° West  Level Estimated
Wed 05:41:00 AM 62.9959 47.5564 266° West  Level Estimated
Wed 05:42:00 AM 62.9879 47.3020 266° West  Level Estimated
Wed 05:43:00 AM 62.9794 47.0478 266° West  Level Estimated
Wed 05:44:00 AM 62.9704 46.7938 266° West  Level Estimated
Wed 05:45:00 AM 62.9610 46.5399 265° West  Level Estimated
Wed 05:46:00 AM 62.9511 46.2862 265° West  Level Estimated
Wed 05:47:00 AM 62.9408 46.0326 265° West  Level Estimated
Wed 05:48:00 AM 62.9300 45.7793 265° West  Level Estimated
Wed 05:49:00 AM 62.9188 45.5261 265° West  Level Estimated
Wed 05:50:00 AM 62.9071 45.2732 264° West  Level Estimated
Wed 05:51:00 AM 62.8950 45.0204 264° West  Level Estimated
Wed 05:52:00 AM 62.8824 44.7678 264° West  Level Estimated
Wed 05:53:00 AM 62.8693 44.5155 264° West  Level Estimated
Wed 05:54:00 AM 62.8558 44.2634 263° West  Level Estimated
Wed 05:55:00 AM 62.8419 44.0115 263° West  Level Estimated
Wed 05:56:00 AM 62.8275 43.7599 263° West  Level Estimated
Wed 05:57:00 AM 62.8127 43.5085 263° West  Level Estimated
Wed 05:58:00 AM 62.7974 43.2574 263° West  Level Estimated
Wed 05:59:00 AM 62.7816 43.0066 262° West  Level Estimated
Wed 06:00:00 AM 62.7655 42.7560 262° West  Level Estimated
Wed 06:01:00 AM 62.7488 42.5057 262° West  Level Estimated
Wed 06:02:00 AM 62.7318 42.2557 262° West  Level Estimated
Wed 06:03:00 AM 62.7142 42.0059 261° West  Level Estimated
Wed 06:04:00 AM 62.6963 41.7565 261° West  Level Estimated
Wed 06:05:00 AM 62.6779 41.5074 261° West  Level Estimated
Wed 06:06:00 AM 62.6590 41.2586 261° West  Level Estimated
Wed 06:07:00 AM 62.6398 41.0101 261° West  Level Estimated
Wed 06:08:00 AM 62.6200 40.7619 260° West  Level Estimated
Wed 06:09:00 AM 62.5999 40.5141 260° West  Level Estimated
Wed 06:10:00 AM 62.5793 40.2666 260° West  Level Estimated
Wed 06:11:00 AM 62.5583 40.0195 260° West  Level Estimated
Wed 06:12:00 AM 62.5368 39.7727 259° West  Level Estimated
Wed 06:13:00 AM 62.5149 39.5263 259° West  Level Estimated
Wed 06:14:00 AM 62.4926 39.2802 259° West  Level Estimated
Wed 06:15:00 AM 62.4698 39.0345 259° West  Level Estimated
Wed 06:16:00 AM 62.4466 38.7892 259° West  Level Estimated
Wed 06:17:00 AM 62.4230 38.5443 258° West  Level Estimated
Wed 06:18:00 AM 62.3989 38.2997 258° West  Level Estimated
Wed 06:19:00 AM 62.3744 38.0556 258° West  Level Estimated
Wed 06:20:00 AM 62.3495 37.8119 258° West  Level Estimated
Wed 06:21:00 AM 62.3242 37.5685 257° West  Level Estimated
Wed 06:22:00 AM 62.2984 37.3256 257° West  Level Estimated
Wed 06:23:00 AM 62.2722 37.0831 257° West  Level Estimated
Wed 06:24:00 AM 62.2456 36.8410 257° West  Level Estimated
Wed 06:25:00 AM 62.2186 36.5994 257° West  Level Estimated
Wed 06:26:00 AM 62.1912 36.3582 256° West  Level Estimated
Wed 06:27:00 AM 62.1633 36.1174 256° West  Level Estimated
Wed 06:28:00 AM 62.1350 35.8771 256° West  Level Estimated
Wed 06:29:00 AM 62.1063 35.6372 256° West  Level Estimated
Wed 06:30:00 AM 62.0771 35.3968 256° West  Level Estimated
Wed 06:31:00 AM 62.0474 35.1569 255° West  Level Estimated
Wed 06:32:00 AM 62.0174 34.9174 255° West  Level Estimated
Wed 06:33:00 AM 61.9869 34.6784 255° West  Level Estimated
Wed 06:34:00 AM 61.9560 34.4399 255° West  Level Estimated
Wed 06:35:00 AM 61.9247 34.2019 254° West  Level Estimated
Wed 06:36:00 AM 61.8930 33.9644 254° West  Level Estimated
Wed 06:37:00 AM 61.8609 33.7274 254° West  Level Estimated
Wed 06:38:00 AM 61.8283 33.4908 254° West  Level Estimated
Wed 06:39:00 AM 61.7954 33.2548 254° West  Level Estimated
Wed 06:40:00 AM 61.7621 33.0193 253° West  Level Estimated
Wed 06:41:00 AM 61.7283 32.7843 253° West  Level Estimated
Wed 06:42:00 AM 61.6942 32.5498 253° West  Level Estimated
Wed 06:43:00 AM 61.6596 32.3158 253° West  Level Estimated
Wed 06:44:00 AM 61.6247 32.0824 253° West  Level Estimated
Wed 06:45:00 AM 61.5894 31.8495 252° West  Level Estimated
Wed 06:46:00 AM 61.5536 31.6171 252° West  Level Estimated
Wed 06:47:00 AM 61.5175 31.3852 252° West  Level Estimated
Wed 06:48:00 AM 61.4810 31.1539 252° West  Level Estimated
Wed 06:49:00 AM 61.4441 30.9232 252° West  Level Estimated
Wed 06:50:00 AM 61.4068 30.6930 251° West  Level Estimated
Wed 06:51:00 AM 61.3691 30.4633 251° West  Level Estimated
Wed 06:52:00 AM 61.3310 30.2342 251° West  Level Estimated
Wed 06:53:00 AM 61.2926 30.0057 251° West  Level Estimated
Wed 06:54:00 AM 61.2537 29.7777 251° West  Level Estimated
Wed 06:55:00 AM 61.2145 29.5503 250° West  Level Estimated
Wed 06:56:00 AM 61.1749 29.3234 250° West  Level Estimated
Wed 06:57:00 AM 61.1349 29.0972 250° West  Level Estimated
Wed 06:58:00 AM 61.0946 28.8715 250° West  Level Estimated
Wed 06:59:00 AM 61.0539 28.6464 250° West  Level Estimated
Wed 07:00:00 AM 61.0127 28.4218 249° West  Level Estimated
Wed 07:01:00 AM 60.9713 28.1978 249° West  Level Estimated
Wed 07:02:00 AM 60.9294 27.9745 249° West  Level Estimated
Wed 07:03:00 AM 60.8872 27.7517 249° West  Level Estimated
Wed 07:04:00 AM 60.8446 27.5295 249° West  Level Estimated
Wed 07:05:00 AM 60.8017 27.3079 248° West  Level Estimated
Wed 07:06:00 AM 60.7584 27.0869 248° West  Level Estimated
Wed 07:07:00 AM 60.7147 26.8665 248° West  Level Estimated
Wed 07:08:00 AM 60.6707 26.6467 248° West  Level Estimated
Wed 07:09:00 AM 60.6263 26.4275 248° West  Level Estimated
Wed 07:10:00 AM 60.5815 26.2089 247° West  Level Estimated
Wed 07:11:00 AM 60.5364 25.9909 247° West  Level Estimated
Wed 07:12:00 AM 60.4909 25.7736 247° West  Level Estimated
Wed 07:13:00 AM 60.4451 25.5568 247° West  Level Estimated
Wed 07:14:00 AM 60.3990 25.3406 247° West  Level Estimated
Wed 07:15:00 AM 60.3525 25.1251 247° West  Level Estimated
Wed 07:16:00 AM 60.3172 24.9633 246° West  Level Estimated
Wed 07:17:00 AM 60.3172 24.9633 North  Level Estimated
Wed 07:18:00 AM 60.3172 24.9633 North  Level Estimated
Wed 07:19:00 AM 60.3172 24.9633 North  Level Estimated
Wed 07:20:00 AM 60.3172 24.9633 North  Level Estimated
Wed 07:21:00 AM 60.3172 24.9633 North  Level Estimated
Wed 07:22:00 AM 60.3172 24.9633 North  Level Estimated
Wed 07:23:00 AM 60.3172 24.9633 North  Level Estimated
Wed 07:24:00 AM 60.3172 24.9633 North  Level Estimated
Wed 07:25:00 AM 60.3172 24.9633 North  Level Estimated
Wed 07:26:00 AM 60.3172 24.9633 North  Level Estimated
Wed 07:27:00 AM 60.3172 24.9633 North  Level Estimated
Wed 07:28:00 AM 60.3172 24.9633 North  Level Estimated
Wed 07:29:00 AM 60.3172 24.9633 North  Level Estimated

Login

Don't have an account? Register now (free) for customized features, flight alerts, and more!